sensor_id;sensor_type;location;lat;lon;timestamp;pressure;altitude;pressure_sealevel;temperature;humidity
29239;BME280;16267;48.194;11.546;2024-02-04T00:02:24;96951.53;;;6.76;100.00
29239;BME280;16267;48.194;11.546;2024-02-04T00:04:51;96959.00;;;6.66;100.00
29239;BME280;16267;48.194;11.546;2024-02-04T00:07:17;96949.25;;;6.74;100.00
29239;BME280;16267;48.194;11.546;2024-02-04T00:09:43;96945.00;;;6.73;100.00
29239;BME280;16267;48.194;11.546;2024-02-04T00:12:10;96941.84;;;6.67;100.00
29239;BME280;16267;48.194;11.546;2024-02-04T00:14:36;96952.75;;;6.78;100.00
29239;BME280;16267;48.194;11.546;2024-02-04T00:17:01;96953.16;;;6.80;100.00
29239;BME280;16267;48.194;11.546;2024-02-04T00:19:27;96954.84;;;6.69;100.00
29239;BME280;16267;48.194;11.546;2024-02-04T00:21:53;96949.84;;;6.67;100.00
29239;BME280;16267;48.194;11.546;2024-02-04T00:24:19;96946.47;;;6.70;100.00
29239;BME280;16267;48.194;11.546;2024-02-04T00:26:45;96952.19;;;6.69;100.00
29239;BME280;16267;48.194;11.546;2024-02-04T00:29:11;96938.13;;;6.72;100.00
29239;BME280;16267;48.194;11.546;2024-02-04T00:31:36;96932.09;;;6.75;100.00
29239;BME280;16267;48.194;11.546;2024-02-04T00:34:02;96927.69;;;6.63;100.00
29239;BME280;16267;48.194;11.546;2024-02-04T00:36:28;96909.78;;;6.44;100.00
29239;BME280;16267;48.194;11.546;2024-02-04T00:38:54;96905.13;;;6.41;100.00
29239;BME280;16267;48.194;11.546;2024-02-04T00:41:20;96904.56;;;6.32;100.00
29239;BME280;16267;48.194;11.546;2024-02-04T00:43:45;96896.84;;;6.27;100.00
29239;BME280;16267;48.194;11.546;2024-02-04T00:46:11;96902.09;;;6.23;100.00
29239;BME280;16267;48.194;11.546;2024-02-04T00:48:37;96891.25;;;6.32;100.00
29239;BME280;16267;48.194;11.546;2024-02-04T00:51:03;96890.31;;;6.24;100.00
29239;BME280;16267;48.194;11.546;2024-02-04T00:53:29;96891.09;;;6.25;100.00
29239;BME280;16267;48.194;11.546;2024-02-04T00:56:08;96892.50;;;6.38;100.00
29239;BME280;16267;48.194;11.546;2024-02-04T00:58:35;96885.13;;;6.32;100.00
29239;BME280;16267;48.194;11.546;2024-02-04T01:01:01;96876.31;;;6.12;100.00
29239;BME280;16267;48.194;11.546;2024-02-04T01:03:27;96886.44;;;6.22;100.00
29239;BME280;16267;48.194;11.546;2024-02-04T01:05:53;96892.47;;;6.19;100.00
29239;BME280;16267;48.194;11.546;2024-02-04T01:08:21;96880.19;;;6.14;100.00
29239;BME280;16267;48.194;11.546;2024-02-04T01:10:47;96877.53;;;6.14;100.00
29239;BME280;16267;48.194;11.546;2024-02-04T01:13:14;96865.75;;;6.15;100.00
29239;BME280;16267;48.194;11.546;2024-02-04T01:15:39;96877.06;;;6.28;100.00
29239;BME280;16267;48.194;11.546;2024-02-04T01:18:05;96873.84;;;6.38;100.00
29239;BME280;16267;48.194;11.546;2024-02-04T01:20:31;96869.34;;;6.42;100.00
29239;BME280;16267;48.194;11.546;2024-02-04T01:22:56;96865.19;;;6.45;100.00
29239;BME280;16267;48.194;11.546;2024-02-04T01:25:22;96868.34;;;6.31;100.00
29239;BME280;16267;48.194;11.546;2024-02-04T01:27:48;96867.94;;;6.29;100.00
29239;BME280;16267;48.194;11.546;2024-02-04T01:30:14;96869.41;;;6.27;100.00
29239;BME280;16267;48.194;11.546;2024-02-04T01:32:40;96861.31;;;6.23;100.00
29239;BME280;16267;48.194;11.546;2024-02-04T01:35:06;96861.09;;;6.12;100.00
29239;BME280;16267;48.194;11.546;2024-02-04T01:37:32;96867.72;;;6.18;100.00
29239;BME280;16267;48.194;11.546;2024-02-04T01:39:58;96867.44;;;6.23;100.00
29239;BME280;16267;48.194;11.546;2024-02-04T01:42:24;96875.78;;;6.22;100.00
29239;BME280;16267;48.194;11.546;2024-02-04T01:44:49;96882.59;;;6.19;100.00
29239;BME280;16267;48.194;11.546;2024-02-04T01:47:15;96887.00;;;6.12;100.00
29239;BME280;16267;48.194;11.546;2024-02-04T01:49:42;96903.75;;;6.12;100.00
29239;BME280;16267;48.194;11.546;2024-02-04T01:52:09;96903.09;;;6.15;100.00
29239;BME280;16267;48.194;11.546;2024-02-04T01:54:37;96905.53;;;6.24;100.00
29239;BME280;16267;48.194;11.546;2024-02-04T01:57:06;96897.88;;;6.22;100.00
29239;BME280;16267;48.194;11.546;2024-02-04T01:59:32;96884.41;;;6.15;100.00
29239;BME280;16267;48.194;11.546;2024-02-04T02:02:00;96892.47;;;6.19;100.00
29239;BME280;16267;48.194;11.546;2024-02-04T02:04:26;96883.56;;;6.11;100.00
29239;BME280;16267;48.194;11.546;2024-02-04T02:06:55;96889.47;;;6.20;100.00
29239;BME280;16267;48.194;11.546;2024-02-04T02:09:21;96889.94;;;6.26;100.00
29239;BME280;16267;48.194;11.546;2024-02-04T02:12:11;96882.31;;;6.24;100.00
29239;BME280;16267;48.194;11.546;2024-02-04T02:14:44;96890.44;;;6.32;100.00
29239;BME280;16267;48.194;11.546;2024-02-04T02:17:16;96892.00;;;6.33;100.00
29239;BME280;16267;48.194;11.546;2024-02-04T02:22:50;96884.06;;;6.36;100.00
29239;BME280;16267;48.194;11.546;2024-02-04T02:25:20;96868.94;;;6.40;100.00
29239;BME280;16267;48.194;11.546;2024-02-04T02:27:50;96863.31;;;6.45;100.00
29239;BME280;16267;48.194;11.546;2024-02-04T02:30:17;96862.25;;;6.50;100.00
29239;BME280;16267;48.194;11.546;2024-02-04T02:32:48;96862.91;;;6.43;100.00
29239;BME280;16267;48.194;11.546;2024-02-04T02:35:15;96865.69;;;6.51;100.00
29239;BME280;16267;48.194;11.546;2024-02-04T02:37:59;96866.41;;;6.47;100.00
29239;BME280;16267;48.194;11.546;2024-02-04T02:43:09;96855.19;;;6.38;100.00
29239;BME280;16267;48.194;11.546;2024-02-04T02:45:39;96853.22;;;6.35;100.00
29239;BME280;16267;48.194;11.546;2024-02-04T02:48:06;96851.94;;;6.29;100.00
29239;BME280;16267;48.194;11.546;2024-02-04T02:50:35;96841.78;;;6.35;100.00
29239;BME280;16267;48.194;11.546;2024-02-04T02:53:00;96853.28;;;6.39;100.00
29239;BME280;16267;48.194;11.546;2024-02-04T02:55:26;96860.50;;;6.38;100.00
29239;BME280;16267;48.194;11.546;2024-02-04T02:57:52;96862.47;;;6.41;100.00
29239;BME280;16267;48.194;11.546;2024-02-04T03:00:18;96872.09;;;6.27;100.00
29239;BME280;16267;48.194;11.546;2024-02-04T03:02:44;96877.41;;;6.27;100.00
29239;BME280;16267;48.194;11.546;2024-02-04T03:05:10;96863.66;;;6.24;100.00
29239;BME280;16267;48.194;11.546;2024-02-04T03:07:37;96873.63;;;6.28;100.00
29239;BME280;16267;48.194;11.546;2024-02-04T03:10:03;96880.16;;;6.30;100.00
29239;BME280;16267;48.194;11.546;2024-02-04T03:12:29;96883.31;;;6.36;100.00
29239;BME280;16267;48.194;11.546;2024-02-04T03:14:55;96880.56;;;6.32;100.00
29239;BME280;16267;48.194;11.546;2024-02-04T03:17:21;96888.16;;;6.30;100.00
29239;BME280;16267;48.194;11.546;2024-02-04T03:19:48;96885.97;;;6.16;100.00
29239;BME280;16267;48.194;11.546;2024-02-04T03:22:15;96886.19;;;6.27;100.00
29239;BME280;16267;48.194;11.546;2024-02-04T03:24:41;96883.53;;;6.27;100.00
29239;BME280;16267;48.194;11.546;2024-02-04T03:27:07;96876.34;;;6.31;100.00
29239;BME280;16267;48.194;11.546;2024-02-04T03:29:33;96879.50;;;6.37;100.00
29239;BME280;16267;48.194;11.546;2024-02-04T03:31:59;96885.78;;;6.44;100.00
29239;BME280;16267;48.194;11.546;2024-02-04T03:34:24;96880.28;;;6.37;100.00
29239;BME280;16267;48.194;11.546;2024-02-04T03:36:50;96878.47;;;6.41;100.00
29239;BME280;16267;48.194;11.546;2024-02-04T03:39:16;96881.47;;;6.40;100.00
29239;BME280;16267;48.194;11.546;2024-02-04T03:41:42;96873.13;;;6.41;100.00
29239;BME280;16267;48.194;11.546;2024-02-04T03:44:07;96869.13;;;6.32;100.00
29239;BME280;16267;48.194;11.546;2024-02-04T03:46:33;96874.31;;;6.24;100.00
29239;BME280;16267;48.194;11.546;2024-02-04T03:48:59;96876.00;;;6.33;100.00
29239;BME280;16267;48.194;11.546;2024-02-04T03:51:24;96879.44;;;6.33;100.00
29239;BME280;16267;48.194;11.546;2024-02-04T03:53:50;96884.56;;;6.42;100.00
29239;BME280;16267;48.194;11.546;2024-02-04T03:56:17;96870.13;;;6.43;100.00
29239;BME280;16267;48.194;11.546;2024-02-04T03:58:43;96868.50;;;6.38;100.00
29239;BME280;16267;48.194;11.546;2024-02-04T04:01:13;96877.69;;;6.41;100.00
29239;BME280;16267;48.194;11.546;2024-02-04T04:03:44;96868.28;;;6.28;100.00
29239;BME280;16267;48.194;11.546;2024-02-04T04:06:11;96862.81;;;6.40;100.00
29239;BME280;16267;48.194;11.546;2024-02-04T04:08:37;96863.38;;;6.49;100.00
29239;BME280;16267;48.194;11.546;2024-02-04T04:11:03;96862.63;;;6.48;100.00
29239;BME280;16267;48.194;11.546;2024-02-04T04:13:29;96864.97;;;6.54;100.00
29239;BME280;16267;48.194;11.546;2024-02-04T04:15:55;96866.13;;;6.53;100.00
29239;BME280;16267;48.194;11.546;2024-02-04T04:18:23;96862.63;;;6.48;100.00
29239;BME280;16267;48.194;11.546;2024-02-04T04:20:49;96875.75;;;6.57;100.00
29239;BME280;16267;48.194;11.546;2024-02-04T04:23:14;96864.50;;;6.48;100.00
29239;BME280;16267;48.194;11.546;2024-02-04T04:25:40;96858.28;;;6.40;100.00
29239;BME280;16267;48.194;11.546;2024-02-04T04:28:06;96858.06;;;6.30;100.00
29239;BME280;16267;48.194;11.546;2024-02-04T04:30:32;96848.72;;;6.39;100.00
29239;BME280;16267;48.194;11.546;2024-02-04T04:32:57;96863.72;;;6.47;100.00
29239;BME280;16267;48.194;11.546;2024-02-04T04:35:24;96882.13;;;6.53;100.00
29239;BME280;16267;48.194;11.546;2024-02-04T04:37:50;96888.81;;;6.62;100.00
29239;BME280;16267;48.194;11.546;2024-02-04T04:40:16;96889.56;;;6.63;100.00
29239;BME280;16267;48.194;11.546;2024-02-04T04:42:42;96885.81;;;6.67;100.00
29239;BME280;16267;48.194;11.546;2024-02-04T04:45:08;96892.44;;;6.74;100.00
29239;BME280;16267;48.194;11.546;2024-02-04T04:47:34;96894.41;;;6.77;100.00
29239;BME280;16267;48.194;11.546;2024-02-04T04:50:00;96888.31;;;6.76;100.00
29239;BME280;16267;48.194;11.546;2024-02-04T04:52:26;96879.22;;;6.81;100.00
29239;BME280;16267;48.194;11.546;2024-02-04T04:54:51;96889.19;;;6.84;100.00
29239;BME280;16267;48.194;11.546;2024-02-04T04:57:17;96886.47;;;6.80;100.00
29239;BME280;16267;48.194;11.546;2024-02-04T04:59:43;96882.97;;;6.76;100.00
29239;BME280;16267;48.194;11.546;2024-02-04T05:02:09;96884.13;;;6.79;100.00
29239;BME280;16267;48.194;11.546;2024-02-04T05:04:36;96876.50;;;6.77;100.00
29239;BME280;16267;48.194;11.546;2024-02-04T05:07:02;96878.44;;;6.80;100.00
29239;BME280;16267;48.194;11.546;2024-02-04T05:09:28;96869.19;;;6.74;100.00
29239;BME280;16267;48.194;11.546;2024-02-04T05:11:53;96871.94;;;6.78;100.00
29239;BME280;16267;48.194;11.546;2024-02-04T05:14:19;96869.13;;;6.70;100.00
29239;BME280;16267;48.194;11.546;2024-02-04T05:16:45;96855.78;;;6.70;100.00
29239;BME280;16267;48.194;11.546;2024-02-04T05:19:11;96858.03;;;6.68;100.00
29239;BME280;16267;48.194;11.546;2024-02-04T05:21:39;96854.59;;;6.68;100.00
29239;BME280;16267;48.194;11.546;2024-02-04T05:24:08;96848.91;;;6.69;100.00
29239;BME280;16267;48.194;11.546;2024-02-04T05:26:33;96852.34;;;6.70;100.00
29239;BME280;16267;48.194;11.546;2024-02-04T05:28:59;96853.91;;;6.71;100.00
29239;BME280;16267;48.194;11.546;2024-02-04T05:31:25;96873.78;;;6.74;100.00
29239;BME280;16267;48.194;11.546;2024-02-04T05:33:52;96869.47;;;6.69;100.00
29239;BME280;16267;48.194;11.546;2024-02-04T05:36:18;96872.28;;;6.76;100.00
29239;BME280;16267;48.194;11.546;2024-02-04T05:38:45;96860.28;;;6.66;100.00
29239;BME280;16267;48.194;11.546;2024-02-04T05:41:11;96855.59;;;6.60;100.00
29239;BME280;16267;48.194;11.546;2024-02-04T05:43:36;96849.91;;;6.61;100.00
29239;BME280;16267;48.194;11.546;2024-02-04T05:46:02;96854.88;;;6.63;100.00
29239;BME280;16267;48.194;11.546;2024-02-04T05:48:28;96856.47;;;6.67;100.00
29239;BME280;16267;48.194;11.546;2024-02-04T05:50:54;96853.00;;;6.63;100.00
29239;BME280;16267;48.194;11.546;2024-02-04T05:53:19;96868.00;;;6.72;100.00
29239;BME280;16267;48.194;11.546;2024-02-04T05:55:46;96866.53;;;6.74;100.00
29239;BME280;16267;48.194;11.546;2024-02-04T05:58:12;96870.81;;;6.59;100.00
29239;BME280;16267;48.194;11.546;2024-02-04T06:00:40;96865.63;;;6.66;100.00
29239;BME280;16267;48.194;11.546;2024-02-04T06:03:06;96876.56;;;6.61;100.00
29239;BME280;16267;48.194;11.546;2024-02-04T06:05:32;96879.59;;;6.60;100.00
29239;BME280;16267;48.194;11.546;2024-02-04T06:07:58;96880.44;;;6.64;100.00
29239;BME280;16267;48.194;11.546;2024-02-04T06:10:24;96871.88;;;6.55;100.00
29239;BME280;16267;48.194;11.546;2024-02-04T06:12:50;96874.94;;;6.57;100.00
29239;BME280;16267;48.194;11.546;2024-02-04T06:15:16;96870.03;;;6.59;100.00
29239;BME280;16267;48.194;11.546;2024-02-04T06:17:42;96869.69;;;6.60;100.00
29239;BME280;16267;48.194;11.546;2024-02-04T06:20:08;96869.28;;;6.58;100.00
29239;BME280;16267;48.194;11.546;2024-02-04T06:22:35;96866.31;;;6.63;100.00
29239;BME280;16267;48.194;11.546;2024-02-04T06:25:02;96870.97;;;6.66;100.00
29239;BME280;16267;48.194;11.546;2024-02-04T06:27:29;96869.19;;;6.74;100.00
29239;BME280;16267;48.194;11.546;2024-02-04T06:29:56;96874.09;;;6.72;100.00
29239;BME280;16267;48.194;11.546;2024-02-04T06:32:21;96880.97;;;6.73;100.00
29239;BME280;16267;48.194;11.546;2024-02-04T06:34:47;96872.69;;;6.78;100.00
29239;BME280;16267;48.194;11.546;2024-02-04T06:37:13;96875.78;;;6.80;100.00
29239;BME280;16267;48.194;11.546;2024-02-04T06:39:39;96886.41;;;6.77;100.00
29239;BME280;16267;48.194;11.546;2024-02-04T06:42:05;96889.91;;;6.81;100.00
29239;BME280;16267;48.194;11.546;2024-02-04T06:44:31;96906.66;;;6.81;100.00
29239;BME280;16267;48.194;11.546;2024-02-04T06:46:56;96907.75;;;6.77;100.00
29239;BME280;16267;48.194;11.546;2024-02-04T06:49:22;96911.88;;;6.74;100.00
29239;BME280;16267;48.194;11.546;2024-02-04T06:51:48;96908.84;;;6.76;100.00
29239;BME280;16267;48.194;11.546;2024-02-04T06:54:14;96915.81;;;6.80;100.00
29239;BME280;16267;48.194;11.546;2024-02-04T06:56:40;96914.56;;;6.74;100.00
29239;BME280;16267;48.194;11.546;2024-02-04T06:59:06;96919.25;;;6.61;100.00
29239;BME280;16267;48.194;11.546;2024-02-04T07:01:35;96922.06;;;6.68;100.00
29239;BME280;16267;48.194;11.546;2024-02-04T07:04:00;96908.53;;;6.58;100.00
29239;BME280;16267;48.194;11.546;2024-02-04T07:06:26;96922.63;;;6.58;100.00
29239;BME280;16267;48.194;11.546;2024-02-04T07:08:52;96906.28;;;6.40;100.00
29239;BME280;16267;48.194;11.546;2024-02-04T07:11:18;96901.78;;;6.44;100.00
29239;BME280;16267;48.194;11.546;2024-02-04T07:13:44;96895.03;;;6.51;100.00
29239;BME280;16267;48.194;11.546;2024-02-04T07:16:10;96891.16;;;6.48;100.00
29239;BME280;16267;48.194;11.546;2024-02-04T07:18:36;96888.66;;;6.55;100.00
29239;BME280;16267;48.194;11.546;2024-02-04T07:21:02;96896.38;;;6.60;100.00
29239;BME280;16267;48.194;11.546;2024-02-04T07:23:27;96901.13;;;6.70;100.00
29239;BME280;16267;48.194;11.546;2024-02-04T07:25:53;96902.25;;;6.69;100.00
29239;BME280;16267;48.194;11.546;2024-02-04T07:28:19;96898.81;;;6.69;100.00
29239;BME280;16267;48.194;11.546;2024-02-04T07:30:45;96907.59;;;6.69;100.00
29239;BME280;16267;48.194;11.546;2024-02-04T07:33:11;96908.72;;;6.68;100.00
29239;BME280;16267;48.194;11.546;2024-02-04T07:35:36;96898.75;;;6.65;100.00
29239;BME280;16267;48.194;11.546;2024-02-04T07:38:02;96898.28;;;6.79;100.00
29239;BME280;16267;48.194;11.546;2024-02-04T07:40:28;96902.19;;;6.85;100.00
29239;BME280;16267;48.194;11.546;2024-02-04T07:42:55;96904.22;;;6.92;100.00
29239;BME280;16267;48.194;11.546;2024-02-04T07:45:21;96897.06;;;6.96;100.00
29239;BME280;16267;48.194;11.546;2024-02-04T07:47:47;96902.94;;;7.05;100.00
29239;BME280;16267;48.194;11.546;2024-02-04T07:50:12;96897.81;;;6.97;100.00
29239;BME280;16267;48.194;11.546;2024-02-04T07:52:38;96882.00;;;7.07;100.00
29239;BME280;16267;48.194;11.546;2024-02-04T07:55:04;96890.34;;;7.06;100.00
29239;BME280;16267;48.194;11.546;2024-02-04T07:57:30;96887.06;;;7.12;100.00
29239;BME280;16267;48.194;11.546;2024-02-04T07:59:56;96892.06;;;7.18;100.00
29239;BME280;16267;48.194;11.546;2024-02-04T08:02:21;96888.34;;;7.22;100.00
29239;BME280;16267;48.194;11.546;2024-02-04T08:04:47;96883.44;;;7.24;100.00
29239;BME280;16267;48.194;11.546;2024-02-04T08:07:13;96886.72;;;7.18;100.00
29239;BME280;16267;48.194;11.546;2024-02-04T08:09:39;96898.41;;;7.29;100.00
29239;BME280;16267;48.194;11.546;2024-02-04T08:12:05;96897.34;;;7.37;100.00
29239;BME280;16267;48.194;11.546;2024-02-04T08:14:30;96904.50;;;7.29;100.00
29239;BME280;16267;48.194;11.546;2024-02-04T08:16:56;96904.50;;;7.29;100.00
29239;BME280;16267;48.194;11.546;2024-02-04T08:19:22;96908.66;;;7.27;100.00
29239;BME280;16267;48.194;11.546;2024-02-04T08:21:47;96899.75;;;7.19;100.00
29239;BME280;16267;48.194;11.546;2024-02-04T08:24:13;96897.22;;;7.26;100.00
29239;BME280;16267;48.194;11.546;2024-02-04T08:26:39;96886.16;;;7.28;100.00
29239;BME280;16267;48.194;11.546;2024-02-04T08:29:05;96888.09;;;7.31;100.00
29239;BME280;16267;48.194;11.546;2024-02-04T08:31:32;96886.81;;;7.21;100.00
29239;BME280;16267;48.194;11.546;2024-02-04T08:33:59;96876.25;;;7.28;100.00
29239;BME280;16267;48.194;11.546;2024-02-04T08:36:25;96888.97;;;7.35;100.00
29239;BME280;16267;48.194;11.546;2024-02-04T08:38:50;96879.69;;;7.29;100.00
29239;BME280;16267;48.194;11.546;2024-02-04T08:41:16;96871.31;;;7.30;100.00
29239;BME280;16267;48.194;11.546;2024-02-04T08:43:42;96871.75;;;7.32;100.00
29239;BME280;16267;48.194;11.546;2024-02-04T08:46:08;96879.63;;;7.48;100.00
29239;BME280;16267;48.194;11.546;2024-02-04T08:48:36;96886.09;;;7.47;100.00
29239;BME280;16267;48.194;11.546;2024-02-04T08:51:13;96879.78;;;7.59;100.00
29239;BME280;16267;48.194;11.546;2024-02-04T08:53:42;96875.78;;;7.72;100.00
29239;BME280;16267;48.194;11.546;2024-02-04T08:56:10;96869.47;;;7.84;100.00
29239;BME280;16267;48.194;11.546;2024-02-04T08:58:36;96868.34;;;7.85;100.00
29239;BME280;16267;48.194;11.546;2024-02-04T09:01:06;96863.47;;;7.91;100.00
29239;BME280;16267;48.194;11.546;2024-02-04T09:03:32;96855.22;;;8.03;100.00
29239;BME280;16267;48.194;11.546;2024-02-04T09:05:59;96846.13;;;8.08;100.00
29239;BME280;16267;48.194;11.546;2024-02-04T09:08:28;96851.19;;;8.16;100.00
29239;BME280;16267;48.194;11.546;2024-02-04T09:10:54;96842.16;;;8.28;100.00
29239;BME280;16267;48.194;11.546;2024-02-04T09:13:19;96841.84;;;8.33;100.00
29239;BME280;16267;48.194;11.546;2024-02-04T09:15:45;96847.25;;;8.37;99.35
29239;BME280;16267;48.194;11.546;2024-02-04T09:18:11;96849.63;;;8.42;99.20
29239;BME280;16267;48.194;11.546;2024-02-04T09:20:39;96839.78;;;8.49;99.22
29239;BME280;16267;48.194;11.546;2024-02-04T09:23:05;96841.97;;;8.40;98.18
29239;BME280;16267;48.194;11.546;2024-02-04T09:25:31;96839.34;;;8.44;98.14
29239;BME280;16267;48.194;11.546;2024-02-04T09:27:57;96843.19;;;8.46;98.57
29239;BME280;16267;48.194;11.546;2024-02-04T09:30:22;96830.66;;;8.54;97.63
29239;BME280;16267;48.194;11.546;2024-02-04T09:32:48;96836.03;;;8.54;96.67
29239;BME280;16267;48.194;11.546;2024-02-04T09:35:14;96839.09;;;8.56;96.94
29239;BME280;16267;48.194;11.546;2024-02-04T09:37:43;96838.81;;;8.65;97.46
29239;BME280;16267;48.194;11.546;2024-02-04T09:40:12;96840.63;;;8.57;96.66
29239;BME280;16267;48.194;11.546;2024-02-04T09:42:41;96835.25;;;8.54;96.17
29239;BME280;16267;48.194;11.546;2024-02-04T09:45:09;96850.63;;;8.64;96.65
29239;BME280;16267;48.194;11.546;2024-02-04T09:47:35;96840.44;;;8.73;96.54
29239;BME280;16267;48.194;11.546;2024-02-04T09:50:25;96854.06;;;8.61;96.46
29239;BME280;16267;48.194;11.546;2024-02-04T09:53:00;96844.13;;;8.61;96.51
29239;BME280;16267;48.194;11.546;2024-02-04T09:55:27;96850.63;;;8.64;96.15
29239;BME280;16267;48.194;11.546;2024-02-04T09:58:00;96855.63;;;8.65;96.09
29239;BME280;16267;48.194;11.546;2024-02-04T10:00:27;96861.78;;;8.69;96.19
29239;BME280;16267;48.194;11.546;2024-02-04T10:02:58;96877.34;;;8.57;95.89
29239;BME280;16267;48.194;11.546;2024-02-04T10:05:28;96874.97;;;8.52;95.61
29239;BME280;16267;48.194;11.546;2024-02-04T10:07:57;96879.00;;;8.68;95.99
29239;BME280;16267;48.194;11.546;2024-02-04T10:10:23;96890.19;;;8.78;95.99
29239;BME280;16267;48.194;11.546;2024-02-04T10:13:04;96890.13;;;8.74;95.42
29239;BME280;16267;48.194;11.546;2024-02-04T10:15:40;96893.25;;;8.80;95.52
29239;BME280;16267;48.194;11.546;2024-02-04T10:18:07;96883.34;;;8.84;95.36
29239;BME280;16267;48.194;11.546;2024-02-04T10:20:34;96893.47;;;8.64;94.86
29239;BME280;16267;48.194;11.546;2024-02-04T10:23:00;96882.91;;;8.78;94.57
29239;BME280;16267;48.194;11.546;2024-02-04T10:25:26;96891.00;;;8.82;95.16
29239;BME280;16267;48.194;11.546;2024-02-04T10:27:53;96870.78;;;8.88;94.85
29239;BME280;16267;48.194;11.546;2024-02-04T10:30:20;96870.09;;;8.94;95.45
29239;BME280;16267;48.194;11.546;2024-02-04T10:32:55;96870.47;;;8.93;93.90
29239;BME280;16267;48.194;11.546;2024-02-04T10:35:23;96862.66;;;9.14;94.97
29239;BME280;16267;48.194;11.546;2024-02-04T10:37:52;96851.09;;;9.07;94.05
29239;BME280;16267;48.194;11.546;2024-02-04T10:40:18;96856.81;;;9.05;93.83
29239;BME280;16267;48.194;11.546;2024-02-04T10:42:46;96860.75;;;9.19;93.01
29239;BME280;16267;48.194;11.546;2024-02-04T10:45:12;96869.94;;;9.18;92.98
29239;BME280;16267;48.194;11.546;2024-02-04T10:47:40;96878.34;;;9.20;93.21
29239;BME280;16267;48.194;11.546;2024-02-04T10:50:09;96878.03;;;9.28;93.27
29239;BME280;16267;48.194;11.546;2024-02-04T10:52:39;96868.03;;;9.18;92.25
29239;BME280;16267;48.194;11.546;2024-02-04T10:55:11;96861.50;;;9.15;92.81
29239;BME280;16267;48.194;11.546;2024-02-04T10:57:40;96873.41;;;9.22;93.27
29239;BME280;16267;48.194;11.546;2024-02-04T11:00:09;96873.06;;;9.27;93.72
29239;BME280;16267;48.194;11.546;2024-02-04T11:02:41;96864.28;;;9.26;92.87
29239;BME280;16267;48.194;11.546;2024-02-04T11:05:14;96857.84;;;9.38;93.92
29239;BME280;16267;48.194;11.546;2024-02-04T11:07:43;96840.94;;;9.27;92.83
29239;BME280;16267;48.194;11.546;2024-02-04T11:10:10;96829.16;;;9.42;92.51
29239;BME280;16267;48.194;11.546;2024-02-04T11:12:38;96829.03;;;9.24;92.35
29239;BME280;16267;48.194;11.546;2024-02-04T11:15:11;96833.56;;;9.16;93.10
29239;BME280;16267;48.194;11.546;2024-02-04T11:20:58;96818.50;;;9.46;94.59
29239;BME280;16267;48.194;11.546;2024-02-04T11:23:59;96810.16;;;9.58;93.17
29239;BME280;16267;48.194;11.546;2024-02-04T11:26:30;96801.91;;;9.92;92.11
29239;BME280;16267;48.194;11.546;2024-02-04T11:28:56;96794.50;;;10.40;89.56
29239;BME280;16267;48.194;11.546;2024-02-04T11:31:22;96784.16;;;10.46;87.90
29239;BME280;16267;48.194;11.546;2024-02-04T11:33:51;96780.03;;;11.42;85.30
29239;BME280;16267;48.194;11.546;2024-02-04T11:36:17;96784.63;;;11.41;84.77
29239;BME280;16267;48.194;11.546;2024-02-04T11:38:47;96770.34;;;11.91;80.90
29239;BME280;16267;48.194;11.546;2024-02-04T11:41:25;96754.25;;;12.64;78.52
29239;BME280;16267;48.194;11.546;2024-02-04T11:43:53;96760.69;;;12.11;78.51
29239;BME280;16267;48.194;11.546;2024-02-04T11:46:20;96754.66;;;11.64;78.19
29239;BME280;16267;48.194;11.546;2024-02-04T11:48:57;96763.88;;;11.67;79.04
29239;BME280;16267;48.194;11.546;2024-02-04T11:51:26;96758.47;;;11.70;78.83
29239;BME280;16267;48.194;11.546;2024-02-04T11:53:55;96766.56;;;11.52;79.26
29239;BME280;16267;48.194;11.546;2024-02-04T11:56:23;96774.28;;;11.32;80.36
29239;BME280;16267;48.194;11.546;2024-02-04T11:58:59;96774.31;;;11.25;80.67
29239;BME280;16267;48.194;11.546;2024-02-04T12:01:25;96752.03;;;11.10;81.80
29239;BME280;16267;48.194;11.546;2024-02-04T12:03:51;96755.09;;;10.91;82.00
29239;BME280;16267;48.194;11.546;2024-02-04T12:06:18;96751.25;;;10.96;82.54
29239;BME280;16267;48.194;11.546;2024-02-04T12:08:47;96750.09;;;10.97;83.46
29239;BME280;16267;48.194;11.546;2024-02-04T12:11:14;96737.81;;;10.88;82.81
29239;BME280;16267;48.194;11.546;2024-02-04T12:13:41;96739.34;;;10.75;83.56
29239;BME280;16267;48.194;11.546;2024-02-04T12:16:10;96750.84;;;10.72;83.66
29239;BME280;16267;48.194;11.546;2024-02-04T12:18:48;96728.59;;;10.61;83.83
29239;BME280;16267;48.194;11.546;2024-02-04T12:21:14;96729.34;;;10.58;84.24
29239;BME280;16267;48.194;11.546;2024-02-04T12:23:40;96730.88;;;10.55;84.95
29239;BME280;16267;48.194;11.546;2024-02-04T12:26:06;96722.44;;;10.49;84.90
29239;BME280;16267;48.194;11.546;2024-02-04T12:28:44;96722.03;;;10.40;84.91
29239;BME280;16267;48.194;11.546;2024-02-04T12:31:36;96719.38;;;10.37;85.56
29239;BME280;16267;48.194;11.546;2024-02-04T12:34:02;96705.56;;;10.31;85.77
29239;BME280;16267;48.194;11.546;2024-02-04T12:36:33;96714.00;;;10.37;86.89
29239;BME280;16267;48.194;11.546;2024-02-04T12:39:01;96709.78;;;10.39;86.50
29239;BME280;16267;48.194;11.546;2024-02-04T12:41:27;96706.72;;;10.37;86.41
29239;BME280;16267;48.194;11.546;2024-02-04T12:43:59;96705.88;;;10.26;86.39
29239;BME280;16267;48.194;11.546;2024-02-04T12:46:33;96706.31;;;10.39;86.85
29239;BME280;16267;48.194;11.546;2024-02-04T12:48:59;96700.56;;;10.33;86.61
29239;BME280;16267;48.194;11.546;2024-02-04T12:51:31;96688.31;;;10.46;87.03
29239;BME280;16267;48.194;11.546;2024-02-04T12:54:08;96682.97;;;10.61;87.03
29239;BME280;16267;48.194;11.546;2024-02-04T12:56:50;96653.81;;;10.59;86.07
29239;BME280;16267;48.194;11.546;2024-02-04T12:59:33;96663.41;;;10.60;86.00
29239;BME280;16267;48.194;11.546;2024-02-04T13:02:07;96671.06;;;10.65;86.03
29239;BME280;16267;48.194;11.546;2024-02-04T13:04:35;96664.16;;;10.75;86.37